sensor_id;sensor_type;location;lat;lon;timestamp;pressure;altitude;pressure_sealevel;temperature;humidity
11912;BME280;6016;41.928;25.556;2023-03-16T00:00:18;97952.00;;;11.33;56.45
11912;BME280;6016;41.928;25.556;2023-03-16T00:02:45;97341.22;;;7.13;57.02
11912;BME280;6016;41.928;25.556;2023-03-16T00:05:12;97951.72;;;11.28;56.53
11912;BME280;6016;41.928;25.556;2023-03-16T00:07:41;97955.47;;;11.34;56.41
11912;BME280;6016;41.928;25.556;2023-03-16T00:10:10;97947.38;;;11.35;56.89
11912;BME280;6016;41.928;25.556;2023-03-16T00:12:38;97952.47;;;11.37;57.12
11912;BME280;6016;41.928;25.556;2023-03-16T00:15:05;97953.59;;;11.43;56.16
11912;BME280;6016;41.928;25.556;2023-03-16T00:17:33;97915.91;;;11.25;56.42
11912;BME280;6016;41.928;25.556;2023-03-16T00:20:00;97950.63;;;11.46;56.10
11912;BME280;6016;41.928;25.556;2023-03-16T00:22:31;97905.75;;;11.14;55.80
11912;BME280;6016;41.928;25.556;2023-03-16T00:24:59;97949.81;;;11.45;55.27
11912;BME280;6016;41.928;25.556;2023-03-16T00:27:26;97960.19;;;11.47;56.34
11912;BME280;6016;41.928;25.556;2023-03-16T00:29:53;97960.81;;;11.49;55.87
11912;BME280;6016;41.928;25.556;2023-03-16T00:32:23;97961.13;;;11.54;55.61
11912;BME280;6016;41.928;25.556;2023-03-16T00:34:50;97916.44;;;11.21;55.31
11912;BME280;6016;41.928;25.556;2023-03-16T00:37:18;97948.00;;;11.37;56.10
11912;BME280;6016;41.928;25.556;2023-03-16T00:39:48;97963.59;;;11.56;55.02
11912;BME280;6016;41.928;25.556;2023-03-16T00:42:18;97965.25;;;11.57;54.42
11912;BME280;6016;41.928;25.556;2023-03-16T00:44:45;97943.34;;;11.48;54.31
11912;BME280;6016;41.928;25.556;2023-03-16T00:47:12;97959.81;;;11.50;54.12
11912;BME280;6016;41.928;25.556;2023-03-16T00:49:41;97963.69;;;11.39;54.17
11912;BME280;6016;41.928;25.556;2023-03-16T00:52:09;97960.63;;;11.27;55.76
11912;BME280;6016;41.928;25.556;2023-03-16T00:54:39;97955.66;;;11.24;56.16
11912;BME280;6016;41.928;25.556;2023-03-16T00:57:08;97947.75;;;11.24;55.45
11912;BME280;6016;41.928;25.556;2023-03-16T00:59:37;97922.88;;;11.18;56.24
11912;BME280;6016;41.928;25.556;2023-03-16T01:02:05;97947.19;;;11.37;55.02
11912;BME280;6016;41.928;25.556;2023-03-16T01:04:33;97914.09;;;10.94;55.33
11912;BME280;6016;41.928;25.556;2023-03-16T01:07:00;97939.88;;;11.16;55.39
11912;BME280;6016;41.928;25.556;2023-03-16T01:09:27;97945.03;;;11.09;56.03
11912;BME280;6016;41.928;25.556;2023-03-16T01:11:54;97939.56;;;11.10;57.59
11912;BME280;6016;41.928;25.556;2023-03-16T01:14:21;97945.53;;;11.13;56.49
11912;BME280;6016;41.928;25.556;2023-03-16T01:16:49;97945.03;;;11.09;56.19
11912;BME280;6016;41.928;25.556;2023-03-16T01:19:16;97904.28;;;10.72;56.46
11912;BME280;6016;41.928;25.556;2023-03-16T01:21:43;97946.69;;;11.02;55.81
11912;BME280;6016;41.928;25.556;2023-03-16T01:24:10;97954.41;;;11.11;58.35
11912;BME280;6016;41.928;25.556;2023-03-16T01:26:37;97951.50;;;10.98;57.13
11912;BME280;6016;41.928;25.556;2023-03-16T01:29:04;97909.25;;;10.66;57.28
11912;BME280;6016;41.928;25.556;2023-03-16T01:31:30;97956.47;;;10.93;56.77
11912;BME280;6016;41.928;25.556;2023-03-16T01:33:59;97958.19;;;10.69;57.41
11912;BME280;6016;41.928;25.556;2023-03-16T01:36:29;97954.91;;;10.75;57.61
11912;BME280;6016;41.928;25.556;2023-03-16T01:38:56;97934.66;;;10.51;57.55
11912;BME280;6016;41.928;25.556;2023-03-16T01:41:23;97957.19;;;10.70;58.73
11912;BME280;6016;41.928;25.556;2023-03-16T01:43:51;97926.09;;;10.40;60.47
11912;BME280;6016;41.928;25.556;2023-03-16T01:46:25;97965.25;;;10.77;57.95
11912;BME280;6016;41.928;25.556;2023-03-16T01:48:57;97964.41;;;10.84;57.76
11912;BME280;6016;41.928;25.556;2023-03-16T01:51:31;97952.09;;;10.68;58.45
11912;BME280;6016;41.928;25.556;2023-03-16T01:54:05;97935.47;;;10.60;57.11
11912;BME280;6016;41.928;25.556;2023-03-16T01:56:36;97970.88;;;10.82;59.46
11912;BME280;6016;41.928;25.556;2023-03-16T01:59:08;97918.50;;;10.54;57.28
11912;BME280;6016;41.928;25.556;2023-03-16T02:01:36;97967.88;;;10.85;57.68
11912;BME280;6016;41.928;25.556;2023-03-16T02:04:13;97979.88;;;10.96;56.63
11912;BME280;6016;41.928;25.556;2023-03-16T02:06:44;97966.03;;;10.86;56.80
11912;BME280;6016;41.928;25.556;2023-03-16T02:09:12;97969.38;;;10.88;56.81
11912;BME280;6016;41.928;25.556;2023-03-16T02:11:39;97966.72;;;10.88;56.80
11912;BME280;6016;41.928;25.556;2023-03-16T02:14:09;97982.50;;;11.04;58.35
11912;BME280;6016;41.928;25.556;2023-03-16T02:16:36;97943.03;;;10.71;57.64
11912;BME280;6016;41.928;25.556;2023-03-16T02:19:08;97979.72;;;10.89;58.82
11912;BME280;6016;41.928;25.556;2023-03-16T02:21:45;97992.25;;;10.95;59.13
11912;BME280;6016;41.928;25.556;2023-03-16T02:24:14;97998.19;;;10.89;58.26
11912;BME280;6016;41.928;25.556;2023-03-16T02:26:43;97953.44;;;10.39;59.45
11912;BME280;6016;41.928;25.556;2023-03-16T02:29:25;97996.59;;;10.72;59.36
11912;BME280;6016;41.928;25.556;2023-03-16T02:31:57;97999.25;;;10.72;60.50
11912;BME280;6016;41.928;25.556;2023-03-16T02:34:27;98004.31;;;10.73;60.00
11912;BME280;6016;41.928;25.556;2023-03-16T02:36:56;97955.44;;;10.37;60.05
11912;BME280;6016;41.928;25.556;2023-03-16T02:39:23;98013.06;;;10.74;60.63
11912;BME280;6016;41.928;25.556;2023-03-16T02:41:51;97967.31;;;10.41;59.84
11912;BME280;6016;41.928;25.556;2023-03-16T02:44:20;98018.50;;;10.72;60.25
11912;BME280;6016;41.928;25.556;2023-03-16T02:46:51;97996.78;;;10.53;60.88
11912;BME280;6016;41.928;25.556;2023-03-16T02:49:24;97997.59;;;10.62;61.14
11912;BME280;6016;41.928;25.556;2023-03-16T02:51:52;98019.38;;;10.56;61.32
11912;BME280;6016;41.928;25.556;2023-03-16T02:54:21;98024.13;;;10.61;61.60
11912;BME280;6016;41.928;25.556;2023-03-16T02:56:49;98006.34;;;10.54;61.70
11912;BME280;6016;41.928;25.556;2023-03-16T02:59:16;97936.84;;;9.81;62.19
11912;BME280;6016;41.928;25.556;2023-03-16T03:01:43;98030.22;;;10.53;62.66
11912;BME280;6016;41.928;25.556;2023-03-16T03:04:10;98034.38;;;10.64;62.28
11912;BME280;6016;41.928;25.556;2023-03-16T03:06:39;97959.91;;;10.12;62.15
11912;BME280;6016;41.928;25.556;2023-03-16T03:09:06;98026.13;;;10.67;61.75
11912;BME280;6016;41.928;25.556;2023-03-16T03:11:35;98041.25;;;10.81;61.96
11912;BME280;6016;41.928;25.556;2023-03-16T03:14:02;98049.31;;;10.88;62.00
11912;BME280;6016;41.928;25.556;2023-03-16T03:16:30;98054.09;;;10.84;62.26
11912;BME280;6016;41.928;25.556;2023-03-16T03:18:57;98059.88;;;10.88;61.99
11912;BME280;6016;41.928;25.556;2023-03-16T03:21:24;98061.00;;;10.94;61.99
11912;BME280;6016;41.928;25.556;2023-03-16T03:23:52;98031.03;;;10.70;61.82
11912;BME280;6016;41.928;25.556;2023-03-16T03:26:19;98066.78;;;10.97;61.81
11912;BME280;6016;41.928;25.556;2023-03-16T03:28:46;98044.53;;;10.83;61.85
11912;BME280;6016;41.928;25.556;2023-03-16T03:31:14;98074.19;;;11.02;61.80
11912;BME280;6016;41.928;25.556;2023-03-16T03:33:42;98071.22;;;11.05;61.80
11912;BME280;6016;41.928;25.556;2023-03-16T03:36:09;98045.53;;;10.82;61.97
11912;BME280;6016;41.928;25.556;2023-03-16T03:38:37;98058.22;;;10.95;62.29
11912;BME280;6016;41.928;25.556;2023-03-16T03:41:06;98083.56;;;11.13;62.72
11912;BME280;6016;41.928;25.556;2023-03-16T03:43:33;98085.22;;;11.14;62.18
11912;BME280;6016;41.928;25.556;2023-03-16T03:46:02;98060.03;;;10.87;62.12
11912;BME280;6016;41.928;25.556;2023-03-16T03:48:29;98093.97;;;11.15;62.88
11912;BME280;6016;41.928;25.556;2023-03-16T03:50:56;98092.81;;;11.09;62.70
11912;BME280;6016;41.928;25.556;2023-03-16T03:53:22;98050.00;;;10.74;63.27
11912;BME280;6016;41.928;25.556;2023-03-16T03:55:49;98078.03;;;10.75;63.48
11912;BME280;6016;41.928;25.556;2023-03-16T03:58:17;97927.63;;;9.85;63.46
11912;BME280;6016;41.928;25.556;2023-03-16T04:00:44;98098.44;;;10.97;63.47
11912;BME280;6016;41.928;25.556;2023-03-16T04:03:11;98045.41;;;10.59;63.69
11912;BME280;6016;41.928;25.556;2023-03-16T04:05:38;98104.06;;;10.78;64.14
11912;BME280;6016;41.928;25.556;2023-03-16T04:08:05;98107.53;;;10.78;64.29
11912;BME280;6016;41.928;25.556;2023-03-16T04:10:32;98116.44;;;10.69;64.53
11912;BME280;6016;41.928;25.556;2023-03-16T04:12:58;98114.94;;;10.75;65.06
11912;BME280;6016;41.928;25.556;2023-03-16T04:15:27;98122.69;;;10.68;64.51
11912;BME280;6016;41.928;25.556;2023-03-16T04:17:54;98128.63;;;10.70;64.96
11912;BME280;6016;41.928;25.556;2023-03-16T04:20:20;98109.66;;;10.41;65.14
11912;BME280;6016;41.928;25.556;2023-03-16T04:22:48;98128.63;;;10.53;64.32
11912;BME280;6016;41.928;25.556;2023-03-16T04:25:23;98131.41;;;10.52;64.47
11912;BME280;6016;41.928;25.556;2023-03-16T04:27:51;98043.00;;;9.90;64.63
11912;BME280;6016;41.928;25.556;2023-03-16T04:30:18;98044.38;;;9.94;65.09
11912;BME280;6016;41.928;25.556;2023-03-16T04:32:46;98147.41;;;10.59;65.64
11912;BME280;6016;41.928;25.556;2023-03-16T04:35:13;98144.59;;;10.52;64.42
11912;BME280;6016;41.928;25.556;2023-03-16T04:37:41;98123.81;;;10.32;64.93
11912;BME280;6016;41.928;25.556;2023-03-16T04:40:09;98160.44;;;10.60;65.42
11912;BME280;6016;41.928;25.556;2023-03-16T04:42:41;98150.88;;;10.51;64.97
11912;BME280;6016;41.928;25.556;2023-03-16T04:45:09;98154.19;;;10.61;64.60
11912;BME280;6016;41.928;25.556;2023-03-16T04:47:36;98160.59;;;10.50;65.37
11912;BME280;6016;41.928;25.556;2023-03-16T04:50:05;98164.88;;;10.60;64.48
11912;BME280;6016;41.928;25.556;2023-03-16T04:52:32;98157.66;;;10.62;65.15
11912;BME280;6016;41.928;25.556;2023-03-16T04:54:59;98172.97;;;10.66;64.64
11912;BME280;6016;41.928;25.556;2023-03-16T04:57:25;98137.19;;;10.47;64.15
11912;BME280;6016;41.928;25.556;2023-03-16T04:59:52;98182.50;;;10.67;64.18
11912;BME280;6016;41.928;25.556;2023-03-16T05:02:19;98178.56;;;10.63;64.71
11912;BME280;6016;41.928;25.556;2023-03-16T05:04:46;98184.84;;;10.62;64.31
11912;BME280;6016;41.928;25.556;2023-03-16T05:07:14;98189.63;;;10.67;64.15
11912;BME280;6016;41.928;25.556;2023-03-16T05:09:41;98183.53;;;10.58;64.53
11912;BME280;6016;41.928;25.556;2023-03-16T05:12:10;98186.81;;;10.60;64.24
11912;BME280;6016;41.928;25.556;2023-03-16T05:14:37;98149.13;;;10.17;65.51
11912;BME280;6016;41.928;25.556;2023-03-16T05:17:04;98201.28;;;10.48;64.57
11912;BME280;6016;41.928;25.556;2023-03-16T05:19:31;98204.69;;;10.40;65.25
11912;BME280;6016;41.928;25.556;2023-03-16T05:21:58;98215.34;;;10.22;65.40
11912;BME280;6016;41.928;25.556;2023-03-16T05:24:26;98184.16;;;10.09;64.55
11912;BME280;6016;41.928;25.556;2023-03-16T05:26:53;98209.09;;;10.23;64.55
11912;BME280;6016;41.928;25.556;2023-03-16T05:29:19;98218.50;;;10.34;65.61
11912;BME280;6016;41.928;25.556;2023-03-16T05:31:46;98220.13;;;10.18;64.52
11912;BME280;6016;41.928;25.556;2023-03-16T05:34:13;98199.50;;;10.13;64.32
11912;BME280;6016;41.928;25.556;2023-03-16T05:36:40;98212.75;;;10.38;63.65
11912;BME280;6016;41.928;25.556;2023-03-16T05:39:09;98176.38;;;9.91;63.21
11912;BME280;6016;41.928;25.556;2023-03-16T05:41:38;98228.06;;;10.35;65.83
11912;BME280;6016;41.928;25.556;2023-03-16T05:44:06;98239.66;;;10.42;63.58
11912;BME280;6016;41.928;25.556;2023-03-16T05:46:33;98169.25;;;9.83;63.36
11912;BME280;6016;41.928;25.556;2023-03-16T05:49:00;98206.22;;;10.08;64.69
11912;BME280;6016;41.928;25.556;2023-03-16T05:51:27;98220.25;;;10.08;63.57
11912;BME280;6016;41.928;25.556;2023-03-16T05:53:54;98252.56;;;10.19;62.88
11912;BME280;6016;41.928;25.556;2023-03-16T05:56:22;98253.38;;;10.19;63.87
11912;BME280;6016;41.928;25.556;2023-03-16T05:58:51;98172.16;;;9.71;65.79
11912;BME280;6016;41.928;25.556;2023-03-16T06:01:18;98087.38;;;8.72;64.00
11912;BME280;6016;41.928;25.556;2023-03-16T06:03:45;98247.84;;;9.96;63.39
11912;BME280;6016;41.928;25.556;2023-03-16T06:06:13;98247.28;;;9.84;63.27
11912;BME280;6016;41.928;25.556;2023-03-16T06:08:41;98272.63;;;9.85;63.39
11912;BME280;6016;41.928;25.556;2023-03-16T06:11:08;98275.78;;;9.89;63.68
11912;BME280;6016;41.928;25.556;2023-03-16T06:13:36;97844.56;;;7.04;63.65
11912;BME280;6016;41.928;25.556;2023-03-16T06:16:04;98248.53;;;9.45;64.21
11912;BME280;6016;41.928;25.556;2023-03-16T06:18:31;98286.31;;;9.80;63.92
11912;BME280;6016;41.928;25.556;2023-03-16T06:20:59;98209.44;;;9.32;63.86
11912;BME280;6016;41.928;25.556;2023-03-16T06:23:27;98291.41;;;9.82;64.00
11912;BME280;6016;41.928;25.556;2023-03-16T06:25:54;98294.41;;;9.87;65.20
11912;BME280;6016;41.928;25.556;2023-03-16T06:28:21;98300.03;;;9.92;64.21
11912;BME280;6016;41.928;25.556;2023-03-16T06:30:52;98275.66;;;9.90;64.60
11912;BME280;6016;41.928;25.556;2023-03-16T06:33:20;98216.97;;;9.45;63.83
11912;BME280;6016;41.928;25.556;2023-03-16T06:35:47;98221.28;;;9.28;63.72
11912;BME280;6016;41.928;25.556;2023-03-16T06:38:14;98292.09;;;9.66;64.32
11912;BME280;6016;41.928;25.556;2023-03-16T06:40:41;98317.00;;;9.71;63.81
11912;BME280;6016;41.928;25.556;2023-03-16T06:43:07;98326.72;;;9.71;64.16
11912;BME280;6016;41.928;25.556;2023-03-16T06:45:34;98272.56;;;9.24;64.97
11912;BME280;6016;41.928;25.556;2023-03-16T06:48:01;98313.50;;;9.45;63.87
11912;BME280;6016;41.928;25.556;2023-03-16T06:50:30;98248.28;;;8.94;63.84
11912;BME280;6016;41.928;25.556;2023-03-16T06:52:56;98328.41;;;9.54;64.22
11912;BME280;6016;41.928;25.556;2023-03-16T06:55:23;98300.75;;;9.32;67.06
11912;BME280;6016;41.928;25.556;2023-03-16T06:57:50;98346.25;;;9.87;64.94
11912;BME280;6016;41.928;25.556;2023-03-16T07:00:17;98343.63;;;9.87;64.32
11912;BME280;6016;41.928;25.556;2023-03-16T07:02:44;98349.22;;;9.92;63.90
11912;BME280;6016;41.928;25.556;2023-03-16T07:05:11;98346.78;;;9.90;64.44
11912;BME280;6016;41.928;25.556;2023-03-16T07:07:40;98355.91;;;10.04;63.26
11912;BME280;6016;41.928;25.556;2023-03-16T07:10:09;98354.63;;;10.08;62.21
11912;BME280;6016;41.928;25.556;2023-03-16T07:12:36;98359.59;;;10.11;62.17
11912;BME280;6016;41.928;25.556;2023-03-16T07:15:04;98363.13;;;10.02;61.88
11912;BME280;6016;41.928;25.556;2023-03-16T07:17:31;98362.47;;;10.00;63.23
11912;BME280;6016;41.928;25.556;2023-03-16T07:19:58;98314.22;;;9.73;62.93
11912;BME280;6016;41.928;25.556;2023-03-16T07:22:25;98362.88;;;10.13;63.74
11912;BME280;6016;41.928;25.556;2023-03-16T07:24:53;98324.69;;;9.65;61.66
11912;BME280;6016;41.928;25.556;2023-03-16T07:27:21;98362.47;;;10.00;62.82
11912;BME280;6016;41.928;25.556;2023-03-16T07:29:49;98357.59;;;10.05;61.50
11912;BME280;6016;41.928;25.556;2023-03-16T07:32:17;98377.03;;;10.12;61.12
11912;BME280;6016;41.928;25.556;2023-03-16T07:34:44;98378.69;;;10.13;62.53
11912;BME280;6016;41.928;25.556;2023-03-16T07:37:11;98318.25;;;9.85;62.06
11912;BME280;6016;41.928;25.556;2023-03-16T07:39:38;98390.63;;;10.26;60.92
11912;BME280;6016;41.928;25.556;2023-03-16T07:42:06;98379.94;;;10.27;63.05
11912;BME280;6016;41.928;25.556;2023-03-16T07:44:33;98394.00;;;10.36;60.89
11912;BME280;6016;41.928;25.556;2023-03-16T07:47:00;98396.31;;;10.39;60.68
11912;BME280;6016;41.928;25.556;2023-03-16T07:49:27;98396.72;;;10.45;63.46
11912;BME280;6016;41.928;25.556;2023-03-16T07:51:53;98360.84;;;10.34;63.26
11912;BME280;6016;41.928;25.556;2023-03-16T07:54:20;98355.28;;;10.10;62.90
11912;BME280;6016;41.928;25.556;2023-03-16T07:56:48;98355.72;;;9.79;63.91
11912;BME280;6016;41.928;25.556;2023-03-16T07:59:17;98400.41;;;10.34;62.55
11912;BME280;6016;41.928;25.556;2023-03-16T08:01:45;98400.56;;;10.32;64.54
11912;BME280;6016;41.928;25.556;2023-03-16T08:04:12;98399.25;;;10.10;62.55
11912;BME280;6016;41.928;25.556;2023-03-16T08:06:39;98400.53;;;10.06;63.49
11912;BME280;6016;41.928;25.556;2023-03-16T08:09:06;98398.22;;;10.29;64.50
11912;BME280;6016;41.928;25.556;2023-03-16T08:11:33;98231.34;;;9.33;63.00
11912;BME280;6016;41.928;25.556;2023-03-16T08:14:00;98392.81;;;10.31;64.98
11912;BME280;6016;41.928;25.556;2023-03-16T08:16:28;98414.41;;;10.61;63.29
11912;BME280;6016;41.928;25.556;2023-03-16T08:18:56;98412.63;;;10.61;62.78
11912;BME280;6016;41.928;25.556;2023-03-16T08:21:24;98341.03;;;9.95;62.12
11912;BME280;6016;41.928;25.556;2023-03-16T08:23:50;98406.84;;;10.39;63.13
11912;BME280;6016;41.928;25.556;2023-03-16T08:26:18;98413.78;;;10.67;64.62
11912;BME280;6016;41.928;25.556;2023-03-16T08:28:45;98282.13;;;9.51;60.30
11912;BME280;6016;41.928;25.556;2023-03-16T08:31:13;98400.69;;;10.04;62.86
11912;BME280;6016;41.928;25.556;2023-03-16T08:33:42;98418.63;;;10.27;60.97
11912;BME280;6016;41.928;25.556;2023-03-16T08:36:11;98423.91;;;10.27;61.73
11912;BME280;6016;41.928;25.556;2023-03-16T08:38:40;98428.00;;;10.21;62.19
11912;BME280;6016;41.928;25.556;2023-03-16T08:41:07;98427.94;;;10.39;62.02
11912;BME280;6016;41.928;25.556;2023-03-16T08:43:34;98438.59;;;10.30;64.29
11912;BME280;6016;41.928;25.556;2023-03-16T08:46:02;98353.78;;;9.81;61.49
11912;BME280;6016;41.928;25.556;2023-03-16T08:48:31;98433.16;;;10.49;63.11
11912;BME280;6016;41.928;25.556;2023-03-16T08:51:02;98432.78;;;10.71;61.19
11912;BME280;6016;41.928;25.556;2023-03-16T08:53:30;98432.88;;;10.61;59.12
11912;BME280;6016;41.928;25.556;2023-03-16T08:56:01;98413.94;;;10.12;62.32
11912;BME280;6016;41.928;25.556;2023-03-16T08:58:29;98442.03;;;10.30;59.85
11912;BME280;6016;41.928;25.556;2023-03-16T09:00:57;98432.88;;;10.34;60.35
11912;BME280;6016;41.928;25.556;2023-03-16T09:03:24;98441.56;;;10.53;60.74
11912;BME280;6016;41.928;25.556;2023-03-16T09:05:51;98445.38;;;10.50;60.05
11912;BME280;6016;41.928;25.556;2023-03-16T09:08:19;98377.16;;;10.03;59.11
11912;BME280;6016;41.928;25.556;2023-03-16T09:10:46;98445.56;;;10.57;58.91
11912;BME280;6016;41.928;25.556;2023-03-16T09:13:13;98383.81;;;10.15;62.13
11912;BME280;6016;41.928;25.556;2023-03-16T09:15:40;98454.50;;;10.64;59.62
11912;BME280;6016;41.928;25.556;2023-03-16T09:18:07;98307.09;;;9.92;60.78
11912;BME280;6016;41.928;25.556;2023-03-16T09:20:34;98462.06;;;10.94;59.63
11912;BME280;6016;41.928;25.556;2023-03-16T09:23:02;98414.34;;;10.79;59.12
11912;BME280;6016;41.928;25.556;2023-03-16T09:25:30;98379.94;;;10.54;58.32
11912;BME280;6016;41.928;25.556;2023-03-16T09:27:58;98215.34;;;9.79;57.91
11912;BME280;6016;41.928;25.556;2023-03-16T09:30:25;98433.59;;;11.14;58.65
11912;BME280;6016;41.928;25.556;2023-03-16T09:32:52;98439.06;;;11.13;59.28
11912;BME280;6016;41.928;25.556;2023-03-16T09:35:19;98468.91;;;11.13;58.97
11912;BME280;6016;41.928;25.556;2023-03-16T09:37:46;98461.84;;;11.22;58.22
11912;BME280;6016;41.928;25.556;2023-03-16T09:40:21;98468.66;;;11.41;59.40
11912;BME280;6016;41.928;25.556;2023-03-16T09:42:59;98476.28;;;11.01;57.66
11912;BME280;6016;41.928;25.556;2023-03-16T09:45:35;98444.91;;;10.90;59.33
11912;BME280;6016;41.928;25.556;2023-03-16T09:48:04;98479.97;;;11.17;59.17
11912;BME280;6016;41.928;25.556;2023-03-16T09:50:37;98438.66;;;10.99;59.93
11912;BME280;6016;41.928;25.556;2023-03-16T09:53:09;98486.16;;;11.34;61.30
11912;BME280;6016;41.928;25.556;2023-03-16T09:55:41;98486.38;;;11.14;59.44
11912;BME280;6016;41.928;25.556;2023-03-16T09:58:16;98483.47;;;11.25;56.92
11912;BME280;6016;41.928;25.556;2023-03-16T10:00:52;98421.97;;;10.90;58.31
11912;BME280;6016;41.928;25.556;2023-03-16T10:03:31;98485.66;;;11.38;58.34
11912;BME280;6016;41.928;25.556;2023-03-16T10:06:06;98482.56;;;11.51;58.44
11912;BME280;6016;41.928;25.556;2023-03-16T10:08:38;98464.50;;;11.30;58.24
11912;BME280;6016;41.928;25.556;2023-03-16T10:11:23;98489.00;;;11.57;58.33
11912;BME280;6016;41.928;25.556;2023-03-16T10:13:56;98493.31;;;11.58;58.61
11912;BME280;6016;41.928;25.556;2023-03-16T10:16:31;98281.31;;;10.38;57.78
11912;BME280;6016;41.928;25.556;2023-03-16T10:19:02;98483.97;;;11.29;56.03
11912;BME280;6016;41.928;25.556;2023-03-16T10:21:38;98490.47;;;11.51;57.49
11912;BME280;6016;41.928;25.556;2023-03-16T10:24:12;98471.78;;;11.28;56.80
11912;BME280;6016;41.928;25.556;2023-03-16T10:26:43;98495.44;;;11.46;55.69
11912;BME280;6016;41.928;25.556;2023-03-16T10:29:14;98468.63;;;11.24;56.83
11912;BME280;6016;41.928;25.556;2023-03-16T10:31:41;98493.41;;;11.40;56.34
11912;BME280;6016;41.928;25.556;2023-03-16T10:34:08;98454.94;;;11.29;57.77
11912;BME280;6016;41.928;25.556;2023-03-16T10:36:39;98490.03;;;11.73;56.02
11912;BME280;6016;41.928;25.556;2023-03-16T10:39:09;98491.38;;;11.85;55.47
11912;BME280;6016;41.928;25.556;2023-03-16T10:41:38;98505.41;;;11.94;56.13
11912;BME280;6016;41.928;25.556;2023-03-16T10:44:10;98475.00;;;11.65;53.42
11912;BME280;6016;41.928;25.556;2023-03-16T10:46:40;98370.03;;;10.91;54.22
11912;BME280;6016;41.928;25.556;2023-03-16T10:49:20;98467.22;;;11.55;53.49
11912;BME280;6016;41.928;25.556;2023-03-16T10:51:47;98489.19;;;11.64;54.40
11912;BME280;6016;41.928;25.556;2023-03-16T10:54:21;98494.31;;;11.74;54.81
11912;BME280;6016;41.928;25.556;2023-03-16T10:56:49;98497.66;;;11.76;53.61
11912;BME280;6016;41.928;25.556;2023-03-16T10:59:26;98492.00;;;11.71;54.88
11912;BME280;6016;41.928;25.556;2023-03-16T11:01:55;98463.56;;;11.48;54.89
11912;BME280;6016;41.928;25.556;2023-03-16T11:04:22;98443.09;;;11.50;53.55
11912;BME280;6016;41.928;25.556;2023-03-16T11:06:53;98421.88;;;11.08;52.58
11912;BME280;6016;41.928;25.556;2023-03-16T11:09:25;98479.47;;;11.64;55.01
11912;BME280;6016;41.928;25.556;2023-03-16T11:11:58;98469.56;;;11.66;55.78
11912;BME280;6016;41.928;25.556;2023-03-16T11:14:27;98432.19;;;11.45;52.94
11912;BME280;6016;41.928;25.556;2023-03-16T11:16:59;98357.34;;;11.03;53.34
11912;BME280;6016;41.928;25.556;2023-03-16T11:19:32;98477.00;;;11.88;53.69
11912;BME280;6016;41.928;25.556;2023-03-16T11:22:02;98375.56;;;11.22;53.80
11912;BME280;6016;41.928;25.556;2023-03-16T11:24:37;98481.13;;;11.82;53.67
11912;BME280;6016;41.928;25.556;2023-03-16T11:27:16;98409.69;;;11.24;54.68
11912;BME280;6016;41.928;25.556;2023-03-16T11:30:02;98449.88;;;11.69;55.30
11912;BME280;6016;41.928;25.556;2023-03-16T11:32:35;98479.16;;;11.84;53.77
11912;BME280;6016;41.928;25.556;2023-03-16T11:35:11;98142.53;;;9.69;56.55
11912;BME280;6016;41.928;25.556;2023-03-16T11:37:47;98093.16;;;9.28;57.17
11912;BME280;6016;41.928;25.556;2023-03-16T11:40:42;98476.41;;;12.10;54.59
11912;BME280;6016;41.928;25.556;2023-03-16T11:43:24;98474.19;;;11.98;53.49
11912;BME280;6016;41.928;25.556;2023-03-16T11:46:07;98470.28;;;12.02;56.05
11912;BME280;6016;41.928;25.556;2023-03-16T11:48:39;98456.03;;;11.94;54.94
11912;BME280;6016;41.928;25.556;2023-03-16T11:51:13;98420.19;;;11.92;53.92
11912;BME280;6016;41.928;25.556;2023-03-16T11:56:32;98485.78;;;12.55;54.26
11912;BME280;6016;41.928;25.556;2023-03-16T11:59:20;98475.47;;;12.85;51.88
11912;BME280;6016;41.928;25.556;2023-03-16T12:02:18;98468.66;;;12.82;49.70
11912;BME280;6016;41.928;25.556;2023-03-16T12:05:02;98478.75;;;12.87;50.87
11912;BME280;6016;41.928;25.556;2023-03-16T12:07:47;98408.56;;;12.51;52.40
11912;BME280;6016;41.928;25.556;2023-03-16T12:10:22;98416.34;;;12.52;52.81
11912;BME280;6016;41.928;25.556;2023-03-16T12:12:59;98441.19;;;12.27;51.66
11912;BME280;6016;41.928;25.556;2023-03-16T12:15:37;98456.00;;;12.61;51.60
11912;BME280;6016;41.928;25.556;2023-03-16T12:18:12;98484.41;;;12.84;52.67
11912;BME280;6016;41.928;25.556;2023-03-16T12:20:47;98462.94;;;12.70;54.25
11912;BME280;6016;41.928;25.556;2023-03-16T12:23:19;98487.72;;;12.77;54.09
11912;BME280;6016;41.928;25.556;2023-03-16T12:25:49;98489.25;;;12.55;54.24
11912;BME280;6016;41.928;25.556;2023-03-16T12:28:21;98490.25;;;12.54;53.92
11912;BME280;6016;41.928;25.556;2023-03-16T12:30:54;98349.19;;;11.47;56.12
11912;BME280;6016;41.928;25.556;2023-03-16T12:33:34;98474.75;;;12.34;56.05
11912;BME280;6016;41.928;25.556;2023-03-16T12:36:15;98506.13;;;12.37;57.47
11912;BME280;6016;41.928;25.556;2023-03-16T12:38:51;98510.59;;;12.37;58.77
11912;BME280;6016;41.928;25.556;2023-03-16T12:41:26;98505.47;;;12.27;58.38
11912;BME280;6016;41.928;25.556;2023-03-16T12:44:08;98469.41;;;11.76;58.68
11912;BME280;6016;41.928;25.556;2023-03-16T12:46:44;98533.06;;;12.08;58.78
11912;BME280;6016;41.928;25.556;2023-03-16T12:49:15;98513.72;;;12.16;58.82
11912;BME280;6016;41.928;25.556;2023-03-16T12:51:44;98526.44;;;12.12;61.06
11912;BME280;6016;41.928;25.556;2023-03-16T12:54:21;98459.63;;;11.52;62.62
11912;BME280;6016;41.928;25.556;2023-03-16T12:56:49;98370.72;;;11.09;63.91
11912;BME280;6016;41.928;25.556;2023-03-16T12:59:19;98477.34;;;11.85;64.86
11912;BME280;6016;41.928;25.556;2023-03-16T13:01:50;98458.16;;;11.74;65.90
11912;BME280;6016;41.928;25.556;2023-03-16T13:04:20;98541.50;;;12.20;65.50
11912;BME280;6016;41.928;25.556;2023-03-16T13:06:51;98538.03;;;12.03;65.64
11912;BME280;6016;41.928;25.556;2023-03-16T13:09:27;98541.59;;;11.93;67.19
11912;BME280;6016;41.928;25.556;2023-03-16T13:11:57;98543.06;;;11.88;68.05
11912;BME280;6016;41.928;25.556;2023-03-16T13:14:35;98579.41;;;11.86;68.66
11912;BME280;6016;41.928;25.556;2023-03-16T13:17:05;98569.66;;;11.78;70.11